UCT Espen — V7GY6 — position and weather

sailwx.info

Track history (hours):
 
Tides and Currents Weather Stations Pressure Air Temp Water Temp Dewpoint Dewpoint Depression Visibility Wind Speed Wind Dir Waves Ship Positions

UCT Espen

Last reported at 2018-Apr-20 13:16 UTC. Time now 2018-Apr-22 12:14 UTC.
Position S 05°30' E 010°50'.

Length 111 m; draft 5.3 m.

Type: Ship. MMSI: 538002192.

Date/timePositionNaut miles runAvg speedWind from/ knotsBaromVisibWave heightAir tempDewpointWater temp
2018-Apr-20 13:16S 05°30' E 010°50'414.1
2018-Apr-20 13:00S 05°27' E 010°52'713.9
2018-Apr-20 12:30S 05°22' E 010°58'714.0
2018-Apr-20 12:00S 05°17' E 011°03'713.9
2018-Apr-20 11:30S 05°13' E 011°08'714.1
2018-Apr-20 10:59S 05°08' E 011°13'713.4
2018-Apr-20 10:30S 05°05' E 011°19'714.1
2018-Apr-20 10:00S 05°03' E 011°26'611.9
2018-Apr-20 09:30S 04°59' E 011°30'812.7
2018-Apr-20 08:52S 04°53' E 011°35'713.5
2018-Apr-20 08:20S 04°49' E 011°41'10 4.0
2018-Apr-20 05:55S 04°53' E 011°50'3 6.9
2018-Apr-20 05:29S 04°55' E 011°52'2 4.7
2018-Apr-20 05:00S 04°56' E 011°54'  
2018-Apr-17 19:43S 04°53' E 011°37'311.5
2018-Apr-17 19:27S 04°53' E 011°34'612.4
2018-Apr-17 19:00S 04°58' E 011°31'510.5
2018-Apr-17 18:28S 05°03' E 011°29'3 6.9
2018-Apr-17 17:59S 05°04' E 011°25'5 9.6
2018-Apr-17 17:30S 05°06' E 011°21'5 9.8
2018-Apr-17 16:58S 05°07' E 011°16'5 9.6
2018-Apr-17 16:30S 05°08' E 011°12'5 9.6
2018-Apr-17 15:59S 05°10' E 011°07'5 9.8
2018-Apr-17 15:30S 05°11' E 011°02'510.4
2018-Apr-17 15:00S 05°14' E 010°58'510.1
2018-Apr-17 14:30S 05°17' E 010°54'710.3
2018-Apr-17 13:50S 05°21' E 010°48'  
Track history (hours):
 
Tides and Currents Weather Stations Pressure Air Temp Water Temp Dewpoint Dewpoint Depression Visibility Wind Speed Wind Dir Waves Ship Positions

UCT Espen

Last reported at 2018-Apr-20 13:16 UTC. Time now 2018-Apr-22 12:14 UTC.
Position S 05°30' E 010°50'.

Length 111 m; draft 5.3 m.

Type: Ship. MMSI: 538002192.

Date/timePositionNaut miles runAvg speedWind from/ knotsBaromVisibWave heightAir tempDewpointWater temp
2018-Apr-20 13:16S 05°30' E 010°50'414.1
2018-Apr-20 13:00S 05°27' E 010°52'713.9
2018-Apr-20 12:30S 05°22' E 010°58'714.0
2018-Apr-20 12:00S 05°17' E 011°03'713.9
2018-Apr-20 11:30S 05°13' E 011°08'714.1
2018-Apr-20 10:59S 05°08' E 011°13'713.4
2018-Apr-20 10:30S 05°05' E 011°19'714.1
2018-Apr-20 10:00S 05°03' E 011°26'611.9
2018-Apr-20 09:30S 04°59' E 011°30'812.7
2018-Apr-20 08:52S 04°53' E 011°35'713.5
2018-Apr-20 08:20S 04°49' E 011°41'10 4.0
2018-Apr-20 05:55S 04°53' E 011°50'3 6.9
2018-Apr-20 05:29S 04°55' E 011°52'2 4.7
2018-Apr-20 05:00S 04°56' E 011°54'  
2018-Apr-17 19:43S 04°53' E 011°37'311.5
2018-Apr-17 19:27S 04°53' E 011°34'612.4
2018-Apr-17 19:00S 04°58' E 011°31'510.5
2018-Apr-17 18:28S 05°03' E 011°29'3 6.9
2018-Apr-17 17:59S 05°04' E 011°25'5 9.6
2018-Apr-17 17:30S 05°06' E 011°21'5 9.8
2018-Apr-17 16:58S 05°07' E 011°16'5 9.6
2018-Apr-17 16:30S 05°08' E 011°12'5 9.6
2018-Apr-17 15:59S 05°10' E 011°07'5 9.8
2018-Apr-17 15:30S 05°11' E 011°02'510.4
2018-Apr-17 15:00S 05°14' E 010°58'510.1
2018-Apr-17 14:30S 05°17' E 010°54'710.3
2018-Apr-17 13:50S 05°21' E 010°48'  

Dump ship's entire track history